createdAt,value
2023-03-20T00:00:00.233Z,32.4340
2023-03-20T00:00:11.311Z,32.4400
2023-03-20T00:00:22.384Z,32.4450
2023-03-20T00:00:33.420Z,32.4400
2023-03-20T00:00:44.483Z,32.4510
2023-03-20T00:00:55.558Z,32.4400
2023-03-20T00:01:06.622Z,32.4400
2023-03-20T00:01:17.687Z,32.4510
2023-03-20T00:01:28.734Z,32.4510
2023-03-20T00:01:39.799Z,32.4560
2023-03-20T00:01:50.870Z,32.4400
2023-03-20T00:02:01.936Z,32.4360
2023-03-20T00:02:13.001Z,32.4300
2023-03-20T00:02:24.063Z,32.4250
2023-03-20T00:02:35.126Z,32.4080
2023-03-20T00:02:46.171Z,32.4190
2023-03-20T00:02:57.236Z,32.4250
2023-03-20T00:03:08.284Z,32.4250
2023-03-20T00:03:19.367Z,32.4250
2023-03-20T00:03:30.463Z,32.4250
2023-03-20T00:03:41.569Z,32.4250
2023-03-20T00:03:52.717Z,32.4300
2023-03-20T00:04:03.786Z,32.4410
2023-03-20T00:04:15.037Z,32.4410
2023-03-20T00:04:26.424Z,32.4590
2023-03-20T00:04:37.520Z,32.4590
2023-03-20T00:04:48.661Z,32.4410
2023-03-20T00:04:59.885Z,32.4560
2023-03-20T00:05:10.941Z,32.4450
2023-03-20T00:05:22.043Z,32.4510
2023-03-20T00:05:33.117Z,32.4680
2023-03-20T00:05:44.189Z,32.4740
2023-03-20T00:05:55.268Z,32.4800
2023-03-20T00:06:06.304Z,32.4620
2023-03-20T00:06:17.389Z,32.4700
2023-03-20T00:06:28.460Z,32.4650
2023-03-20T00:06:39.544Z,32.4590
2023-03-20T00:06:50.629Z,32.4650
2023-03-20T00:07:01.777Z,32.4700
2023-03-20T00:07:12.825Z,32.4760
2023-03-20T00:07:23.876Z,32.4650
2023-03-20T00:07:34.954Z,32.4700
2023-03-20T00:07:46.028Z,32.4650
2023-03-20T00:07:57.095Z,32.4650
2023-03-20T00:08:08.142Z,32.4540
2023-03-20T00:08:19.164Z,32.4410
2023-03-20T00:08:30.211Z,32.4590
2023-03-20T00:08:41.245Z,32.4480
2023-03-20T00:08:53.288Z,32.4870
2023-03-20T00:09:07.552Z,32.4810
2023-03-20T00:09:18.850Z,32.5770
2023-03-20T00:09:29.915Z,32.5070
2023-03-20T00:09:40.990Z,32.4960
2023-03-20T00:09:52.050Z,32.4760
2023-03-20T00:10:03.134Z,32.4700
2023-03-20T00:10:14.166Z,32.4760
2023-03-20T00:10:25.223Z,32.4590
2023-03-20T00:10:36.268Z,32.4650
2023-03-20T00:10:47.331Z,32.4650
2023-03-20T00:10:58.348Z,32.4700
2023-03-20T00:11:09.417Z,32.4760
2023-03-20T00:11:20.474Z,32.4760
2023-03-20T00:11:31.534Z,32.4760
2023-03-20T00:11:42.613Z,32.4920
2023-03-20T00:11:53.645Z,32.5030
2023-03-20T00:12:04.723Z,32.4870
2023-03-20T00:12:15.770Z,32.4980
2023-03-20T00:12:26.832Z,32.4920
2023-03-20T00:12:37.897Z,32.5030
2023-03-20T00:12:48.929Z,32.5140
2023-03-20T00:13:00.007Z,32.5270
2023-03-20T00:13:11.078Z,32.5380
2023-03-20T00:13:22.138Z,32.5210
2023-03-20T00:13:33.232Z,32.5190
2023-03-20T00:13:44.282Z,32.5190
2023-03-20T00:13:55.378Z,32.5300
2023-03-20T00:14:06.448Z,32.5190
2023-03-20T00:14:17.496Z,32.5210
2023-03-20T00:14:28.574Z,32.5210
2023-03-20T00:14:39.628Z,32.5140
2023-03-20T00:14:50.682Z,32.5300
2023-03-20T00:15:01.741Z,32.5240
2023-03-20T00:15:12.775Z,32.5270
2023-03-20T00:15:23.828Z,32.5030
2023-03-20T00:15:35.145Z,32.5210
2023-03-20T00:15:46.410Z,32.5140
2023-03-20T00:15:57.500Z,32.5140
2023-03-20T00:16:08.552Z,32.4980
2023-03-20T00:16:19.687Z,32.4980
2023-03-20T00:16:30.788Z,32.5060
2023-03-20T00:16:41.862Z,32.5010
2023-03-20T00:16:52.970Z,32.4830
2023-03-20T00:17:03.997Z,32.4950
2023-03-20T00:17:15.047Z,32.4890
2023-03-20T00:17:26.115Z,32.5010
2023-03-20T00:17:37.178Z,32.5060
2023-03-20T00:17:48.254Z,32.5120
2023-03-20T00:17:59.369Z,32.5120
2023-03-20T00:18:10.431Z,32.5010
2023-03-20T00:18:21.543Z,32.5010
2023-03-20T00:18:32.603Z,32.5170
2023-03-20T00:18:43.662Z,32.4950
2023-03-20T00:18:54.732Z,32.5060
2023-03-20T00:19:05.803Z,32.5170
2023-03-20T00:19:16.863Z,32.5140
2023-03-20T00:19:27.942Z,32.5210
2023-03-20T00:19:38.991Z,32.5320
2023-03-20T00:19:50.050Z,32.5210
2023-03-20T00:20:01.099Z,32.5380
2023-03-20T00:20:12.145Z,32.5270
2023-03-20T00:20:23.197Z,32.5340
2023-03-20T00:20:34.556Z,32.5170
2023-03-20T00:20:45.878Z,32.5430
2023-03-20T00:20:56.932Z,32.5380
2023-03-20T00:21:08.022Z,32.5210
2023-03-20T00:21:19.070Z,32.5090
2023-03-20T00:21:30.132Z,32.5090
2023-03-20T00:21:41.217Z,32.5170
2023-03-20T00:21:52.267Z,32.5230
2023-03-20T00:22:03.319Z,32.5170
2023-03-20T00:22:14.386Z,32.5170
2023-03-20T00:22:25.446Z,32.5120
2023-03-20T00:22:36.504Z,32.5130
2023-03-20T00:22:47.583Z,32.5020
2023-03-20T00:22:58.678Z,32.5190
2023-03-20T00:23:09.734Z,32.5190
2023-03-20T00:23:20.810Z,32.5130
2023-03-20T00:23:31.848Z,32.5360
2023-03-20T00:23:42.911Z,32.5420
2023-03-20T00:23:53.969Z,32.5360
2023-03-20T00:24:05.049Z,32.5360
2023-03-20T00:24:16.133Z,32.5360
2023-03-20T00:24:27.166Z,32.5450
2023-03-20T00:24:38.244Z,32.5620
2023-03-20T00:24:49.311Z,32.5620
2023-03-20T00:25:00.358Z,32.5620
2023-03-20T00:25:11.430Z,32.5620
2023-03-20T00:25:22.508Z,32.5600
2023-03-20T00:25:33.977Z,32.5660
2023-03-20T00:25:45.400Z,32.5930
2023-03-20T00:25:56.485Z,32.5880
2023-03-20T00:26:07.524Z,32.5820
2023-03-20T00:26:18.593Z,32.5710
2023-03-20T00:26:29.652Z,32.5490
2023-03-20T00:26:40.695Z,32.5600
2023-03-20T00:26:51.801Z,32.5600
2023-03-20T00:27:02.872Z,32.5490
2023-03-20T00:27:13.917Z,32.5510
2023-03-20T00:27:24.990Z,32.5600
2023-03-20T00:27:36.046Z,32.5660
2023-03-20T00:27:47.120Z,32.5880
2023-03-20T00:27:58.194Z,32.5710
2023-03-20T00:28:09.232Z,32.5710
2023-03-20T00:28:20.302Z,32.5710
2023-03-20T00:28:31.337Z,32.5880
2023-03-20T00:28:42.395Z,32.5880
2023-03-20T00:28:53.532Z,32.5770
2023-03-20T00:29:04.590Z,32.5820
2023-03-20T00:29:15.632Z,32.5710
2023-03-20T00:29:26.771Z,32.5880
2023-03-20T00:29:37.800Z,32.5930
2023-03-20T00:29:48.886Z,32.5880
2023-03-20T00:29:59.927Z,32.5820
2023-03-20T00:30:10.996Z,32.5930
2023-03-20T00:30:22.056Z,32.5820
2023-03-20T00:30:33.134Z,32.5820
2023-03-20T00:30:44.170Z,32.5660
2023-03-20T00:30:55.212Z,32.5710
2023-03-20T00:31:06.374Z,32.5560
2023-03-20T00:31:17.434Z,32.5620
2023-03-20T00:31:28.511Z,32.5670
2023-03-20T00:31:39.702Z,32.5740
2023-03-20T00:31:50.879Z,32.5740
2023-03-20T00:32:01.925Z,32.5740
2023-03-20T00:32:13.025Z,32.5670
2023-03-20T00:32:24.091Z,32.5740
2023-03-20T00:32:35.228Z,32.5850
2023-03-20T00:32:46.330Z,32.5960
2023-03-20T00:32:57.437Z,32.5850
2023-03-20T00:33:08.527Z,32.5880
2023-03-20T00:33:19.572Z,32.5910
2023-03-20T00:33:30.653Z,32.5770
2023-03-20T00:33:41.724Z,32.5820
2023-03-20T00:33:52.792Z,32.5880
2023-03-20T00:34:03.855Z,32.5880
2023-03-20T00:34:14.881Z,32.6110
2023-03-20T00:34:26.009Z,32.6050
2023-03-20T00:34:37.081Z,32.6050
2023-03-20T00:34:48.151Z,32.6110
2023-03-20T00:34:59.194Z,32.6280
2023-03-20T00:35:10.272Z,32.6220
2023-03-20T00:35:21.343Z,32.6170
2023-03-20T00:35:32.444Z,32.6170
2023-03-20T00:35:43.513Z,32.6110
2023-03-20T00:35:54.617Z,32.6110
2023-03-20T00:36:05.740Z,32.5930
2023-03-20T00:36:16.821Z,32.6110
2023-03-20T00:36:27.886Z,32.6110
2023-03-20T00:36:38.932Z,32.5880
2023-03-20T00:36:49.980Z,32.5930
2023-03-20T00:37:01.049Z,32.5820
2023-03-20T00:37:12.137Z,32.6000
2023-03-20T00:37:23.175Z,32.6110
2023-03-20T00:37:34.230Z,32.6050
2023-03-20T00:37:45.309Z,32.6050
2023-03-20T00:37:56.372Z,32.6000
2023-03-20T00:38:07.477Z,32.6110
2023-03-20T00:38:19.000Z,32.6050
2023-03-20T00:38:30.067Z,32.6110
2023-03-20T00:38:41.152Z,32.6110
2023-03-20T00:38:52.208Z,32.6050
2023-03-20T00:39:03.254Z,32.6000
2023-03-20T00:39:14.348Z,32.6070
2023-03-20T00:39:25.431Z,32.5960
2023-03-20T00:39:36.460Z,32.6020
2023-03-20T00:39:47.572Z,32.5850
2023-03-20T00:39:58.605Z,32.6020
2023-03-20T00:40:09.691Z,32.5910
2023-03-20T00:40:20.724Z,32.6070
2023-03-20T00:40:31.789Z,32.6070
2023-03-20T00:40:42.860Z,32.6020
2023-03-20T00:40:53.961Z,32.6020
2023-03-20T00:41:05.019Z,32.6070
2023-03-20T00:41:16.094Z,32.6020
2023-03-20T00:41:27.133Z,32.6020
2023-03-20T00:41:38.197Z,32.6020
2023-03-20T00:41:49.230Z,32.6130
2023-03-20T00:42:00.292Z,32.6030
2023-03-20T00:42:11.370Z,32.5980
2023-03-20T00:42:22.502Z,32.6140
2023-03-20T00:42:33.528Z,32.6140
2023-03-20T00:42:44.580Z,32.5920
2023-03-20T00:42:55.637Z,32.5810
2023-03-20T00:43:06.702Z,32.5870
2023-03-20T00:43:17.764Z,32.5920
2023-03-20T00:43:28.824Z,32.5870
2023-03-20T00:43:39.897Z,32.6030
2023-03-20T00:43:50.956Z,32.6090
2023-03-20T00:44:02.013Z,32.5980
2023-03-20T00:44:13.080Z,32.6030
2023-03-20T00:44:24.126Z,32.5980
2023-03-20T00:44:35.208Z,32.6030
2023-03-20T00:44:46.276Z,32.6090
2023-03-20T00:44:57.381Z,32.6210
2023-03-20T00:45:08.408Z,32.6130
2023-03-20T00:45:19.504Z,32.6180
2023-03-20T00:45:30.558Z,32.6240
2023-03-20T00:45:41.604Z,32.6140
2023-03-20T00:45:52.709Z,32.6210
2023-03-20T00:46:03.799Z,32.6210
2023-03-20T00:46:14.874Z,32.6140
2023-03-20T00:46:25.988Z,32.6030
2023-03-20T00:46:37.066Z,32.6140
2023-03-20T00:46:48.234Z,32.6030
2023-03-20T00:46:59.415Z,32.6140
2023-03-20T00:47:10.494Z,32.6090
2023-03-20T00:47:21.566Z,32.6140
2023-03-20T00:47:32.606Z,32.6090
2023-03-20T00:47:43.682Z,32.6140
2023-03-20T00:47:54.764Z,32.6270
2023-03-20T00:48:05.807Z,32.6270
2023-03-20T00:48:16.877Z,32.6090
2023-03-20T00:48:27.946Z,32.6090
2023-03-20T00:48:39.014Z,32.6210
2023-03-20T00:48:50.075Z,32.6210
2023-03-20T00:49:01.125Z,32.6090
2023-03-20T00:49:12.222Z,32.6320
2023-03-20T00:49:23.262Z,32.6140
2023-03-20T00:49:34.299Z,32.6140
2023-03-20T00:49:45.352Z,32.6240
2023-03-20T00:49:56.413Z,32.6290
2023-03-20T00:50:07.488Z,32.6290
2023-03-20T00:50:18.552Z,32.6350
2023-03-20T00:50:29.602Z,32.6290
2023-03-20T00:50:40.671Z,32.6400
2023-03-20T00:50:51.737Z,32.6470
2023-03-20T00:51:02.829Z,32.6580
2023-03-20T00:51:13.887Z,32.6530
2023-03-20T00:51:24.929Z,32.6530
2023-03-20T00:51:35.991Z,32.6350
2023-03-20T00:51:47.049Z,32.6400
2023-03-20T00:51:58.369Z,32.6240
2023-03-20T00:52:09.732Z,32.6430
2023-03-20T00:52:20.787Z,32.6430
2023-03-20T00:52:31.872Z,32.6380
2023-03-20T00:52:42.912Z,32.6270
2023-03-20T00:52:53.968Z,32.6380
2023-03-20T00:53:05.040Z,32.6430
2023-03-20T00:53:16.087Z,32.6430
2023-03-20T00:53:27.144Z,32.6350
2023-03-20T00:53:38.202Z,32.6290
2023-03-20T00:53:49.244Z,32.6320
2023-03-20T00:54:00.329Z,32.6270
2023-03-20T00:54:11.401Z,32.6380
2023-03-20T00:54:22.467Z,32.6320
2023-03-20T00:54:33.563Z,32.6210
2023-03-20T00:54:44.639Z,32.6270
2023-03-20T00:54:55.657Z,32.6270
2023-03-20T00:55:06.741Z,32.6320
2023-03-20T00:55:17.815Z,32.6380
2023-03-20T00:55:28.943Z,32.6490
2023-03-20T00:55:40.031Z,32.6390
2023-03-20T00:55:51.117Z,32.6230
2023-03-20T00:56:02.172Z,32.6280
2023-03-20T00:56:13.252Z,32.6340
2023-03-20T00:56:24.319Z,32.6340
2023-03-20T00:56:35.392Z,32.6390
2023-03-20T00:56:46.448Z,32.6560
2023-03-20T00:56:57.491Z,32.6380
2023-03-20T00:57:08.556Z,32.6320
2023-03-20T00:57:19.617Z,32.6430
2023-03-20T00:57:30.639Z,32.6490
2023-03-20T00:57:41.702Z,32.6540
2023-03-20T00:57:52.743Z,32.6600
2023-03-20T00:58:03.850Z,32.6650
2023-03-20T00:58:14.898Z,32.6600
2023-03-20T00:58:25.993Z,32.6650
2023-03-20T00:58:37.044Z,32.6770
2023-03-20T00:58:48.112Z,32.6770
2023-03-20T00:58:59.167Z,32.6710
2023-03-20T00:59:10.210Z,32.6650
2023-03-20T00:59:21.274Z,32.6650
2023-03-20T00:59:32.315Z,32.6540
2023-03-20T00:59:43.392Z,32.6770
2023-03-20T00:59:54.456Z,32.6600
2023-03-20T01:00:05.530Z,32.6770
2023-03-20T01:00:16.590Z,32.6770
2023-03-20T01:00:27.814Z,32.6910
2023-03-20T01:00:38.911Z,32.6970
2023-03-20T01:00:50.017Z,32.6800
2023-03-20T01:01:01.119Z,32.6910
2023-03-20T01:01:12.252Z,32.6820
2023-03-20T01:01:23.330Z,32.6820
2023-03-20T01:01:34.374Z,32.6650
2023-03-20T01:01:45.431Z,32.6770
2023-03-20T01:01:56.604Z,32.6770
2023-03-20T01:02:07.721Z,32.6860
2023-03-20T01:02:18.827Z,32.6800
2023-03-20T01:02:30.100Z,32.7020
2023-03-20T01:02:41.401Z,32.7140
2023-03-20T01:02:52.407Z,32.7140
2023-03-20T01:03:03.472Z,32.7140
2023-03-20T01:03:14.531Z,32.7080
2023-03-20T01:03:25.600Z,32.7020
2023-03-20T01:03:38.563Z,32.7020
2023-03-20T01:03:51.482Z,32.8330
2023-03-20T01:04:02.533Z,32.7740
2023-03-20T01:04:13.590Z,32.7400
2023-03-20T01:04:24.642Z,32.7370
2023-03-20T01:04:35.705Z,32.7310
2023-03-20T01:04:46.736Z,32.7370
2023-03-20T01:04:57.783Z,32.7430
2023-03-20T01:05:08.858Z,32.7370
2023-03-20T01:05:19.926Z,32.7310
2023-03-20T01:05:31.038Z,32.7370
2023-03-20T01:05:42.083Z,32.7260
2023-03-20T01:05:53.161Z,32.7430
2023-03-20T01:06:04.192Z,32.7430
2023-03-20T01:06:15.257Z,32.7280
2023-03-20T01:06:26.337Z,32.7280
2023-03-20T01:06:37.402Z,32.7330
2023-03-20T01:06:48.449Z,32.7280
2023-03-20T01:06:59.530Z,32.7280
2023-03-20T01:07:10.567Z,32.7280
2023-03-20T01:07:21.646Z,32.7280
2023-03-20T01:07:32.712Z,32.7280
2023-03-20T01:07:43.792Z,32.7170
2023-03-20T01:07:54.848Z,32.7500
2023-03-20T01:08:05.890Z,32.7390
2023-03-20T01:08:16.971Z,32.7400
2023-03-20T01:08:28.005Z,32.7470
2023-03-20T01:08:39.085Z,32.7290
2023-03-20T01:08:50.157Z,32.7400
2023-03-20T01:09:01.208Z,32.7470
2023-03-20T01:09:12.270Z,32.7180
2023-03-20T01:09:23.344Z,32.7350
2023-03-20T01:09:34.399Z,32.7350
2023-03-20T01:09:45.472Z,32.7290
2023-03-20T01:09:56.553Z,32.7350
2023-03-20T01:10:07.634Z,32.7400
2023-03-20T01:10:18.687Z,32.7640
2023-03-20T01:10:29.756Z,32.7690
2023-03-20T01:10:40.848Z,32.7550
2023-03-20T01:10:51.937Z,32.7610
2023-03-20T01:11:03.004Z,32.7900
2023-03-20T01:11:14.051Z,32.8010
2023-03-20T01:11:25.121Z,32.8010
2023-03-20T01:11:36.189Z,32.8060
2023-03-20T01:11:47.247Z,32.8060
2023-03-20T01:11:58.293Z,32.8170
2023-03-20T01:12:09.373Z,32.8170
2023-03-20T01:12:20.438Z,32.8060
2023-03-20T01:12:31.509Z,32.7900
2023-03-20T01:12:42.570Z,32.7950
2023-03-20T01:12:53.647Z,32.7950
2023-03-20T01:13:04.695Z,32.7950
2023-03-20T01:13:15.756Z,32.8010
2023-03-20T01:13:26.813Z,32.7950
2023-03-20T01:13:37.879Z,32.8010
2023-03-20T01:13:48.930Z,32.8060
2023-03-20T01:14:00.004Z,32.8010
2023-03-20T01:14:11.070Z,32.8010
2023-03-20T01:14:22.134Z,32.8010
2023-03-20T01:14:33.227Z,32.8170
2023-03-20T01:14:44.283Z,32.8120
2023-03-20T01:14:55.358Z,32.8230
2023-03-20T01:15:06.421Z,32.8190
2023-03-20T01:15:17.462Z,32.8320
2023-03-20T01:15:28.514Z,32.8260
2023-03-20T01:15:39.547Z,32.8480
2023-03-20T01:15:50.655Z,32.8650
2023-03-20T01:16:01.774Z,32.8760
2023-03-20T01:16:12.941Z,32.8850
2023-03-20T01:16:23.984Z,32.8910
2023-03-20T01:16:35.096Z,32.8740
2023-03-20T01:16:46.327Z,32.8690
2023-03-20T01:16:57.427Z,32.8520
2023-03-20T01:17:08.480Z,32.8450
2023-03-20T01:17:19.579Z,32.8370
2023-03-20T01:17:30.604Z,32.8450
2023-03-20T01:17:41.665Z,32.8450
2023-03-20T01:17:52.740Z,32.8370
2023-03-20T01:18:03.792Z,32.8450
2023-03-20T01:18:14.856Z,32.8450
2023-03-20T01:18:25.893Z,32.8520
2023-03-20T01:18:36.962Z,32.8450
2023-03-20T01:18:48.006Z,32.8400
2023-03-20T01:18:59.070Z,32.8340
2023-03-20T01:19:10.133Z,32.8450
2023-03-20T01:19:21.195Z,32.8340
2023-03-20T01:19:32.273Z,32.8370
2023-03-20T01:19:43.301Z,32.8340
2023-03-20T01:19:54.331Z,32.8450
2023-03-20T01:20:05.407Z,32.8400
2023-03-20T01:20:16.477Z,32.8290
2023-03-20T01:20:27.516Z,32.8290
2023-03-20T01:20:38.593Z,32.8120
2023-03-20T01:20:49.614Z,32.8130
2023-03-20T01:21:00.710Z,32.8080
2023-03-20T01:21:11.744Z,32.8080
2023-03-20T01:21:22.815Z,32.7970
2023-03-20T01:21:33.864Z,32.8020
2023-03-20T01:21:44.954Z,32.8080
2023-03-20T01:21:56.013Z,32.8190
2023-03-20T01:22:07.083Z,32.8480
2023-03-20T01:22:18.157Z,32.8430
2023-03-20T01:22:29.305Z,32.8430
2023-03-20T01:22:40.352Z,32.8190
2023-03-20T01:22:51.389Z,32.8260
2023-03-20T01:23:02.468Z,32.8260
2023-03-20T01:23:13.504Z,32.8130
2023-03-20T01:23:24.647Z,32.8130
2023-03-20T01:23:35.712Z,32.8320
2023-03-20T01:23:46.765Z,32.8080
2023-03-20T01:23:57.829Z,32.8130
2023-03-20T01:24:08.885Z,32.8130
2023-03-20T01:24:19.946Z,32.8130
2023-03-20T01:24:31.008Z,32.8130
2023-03-20T01:24:42.052Z,32.8080
2023-03-20T01:24:53.122Z,32.8060
2023-03-20T01:25:04.165Z,32.8230
2023-03-20T01:25:15.224Z,32.8230
2023-03-20T01:25:26.278Z,32.8190
2023-03-20T01:25:37.610Z,32.8120
2023-03-20T01:25:48.975Z,32.8400
2023-03-20T01:26:00.057Z,32.8400
2023-03-20T01:26:11.133Z,32.8320
2023-03-20T01:26:22.180Z,32.8320
2023-03-20T01:26:33.241Z,32.8370
2023-03-20T01:26:44.339Z,32.8190
2023-03-20T01:26:55.388Z,32.8260
2023-03-20T01:27:06.453Z,32.8190
2023-03-20T01:27:17.516Z,32.8080
2023-03-20T01:27:28.570Z,32.7970
2023-03-20T01:27:39.622Z,32.8020
2023-03-20T01:27:50.672Z,32.7970
2023-03-20T01:28:01.718Z,32.8020
2023-03-20T01:28:12.761Z,32.7910
2023-03-20T01:28:23.824Z,32.7750
2023-03-20T01:28:34.873Z,32.7690
2023-03-20T01:28:45.917Z,32.7690
2023-03-20T01:28:56.993Z,32.7800
2023-03-20T01:29:08.030Z,32.7970
2023-03-20T01:29:19.090Z,32.8020
2023-03-20T01:29:30.144Z,32.7970
2023-03-20T01:29:41.221Z,32.7970
2023-03-20T01:29:52.296Z,32.8130
2023-03-20T01:30:03.340Z,32.8130
2023-03-20T01:30:14.408Z,32.8080
2023-03-20T01:30:25.420Z,32.8260
2023-03-20T01:30:36.482Z,32.8080
2023-03-20T01:30:47.567Z,32.8290
2023-03-20T01:30:58.607Z,32.8450
2023-03-20T01:31:09.691Z,32.8340
2023-03-20T01:31:20.864Z,32.8580
2023-03-20T01:31:31.997Z,32.8450
2023-03-20T01:31:43.100Z,32.8400
2023-03-20T01:31:54.267Z,32.8290
2023-03-20T01:32:05.427Z,32.8520
2023-03-20T01:32:16.474Z,32.8400
2023-03-20T01:32:27.561Z,32.8340
2023-03-20T01:32:38.583Z,32.8230
2023-03-20T01:32:49.725Z,32.8170
2023-03-20T01:33:00.882Z,32.8450
2023-03-20T01:33:11.948Z,32.8400
2023-03-20T01:33:23.014Z,32.8630
2023-03-20T01:33:34.061Z,32.8630
2023-03-20T01:33:45.105Z,32.8630
2023-03-20T01:33:56.159Z,32.8580
2023-03-20T01:34:07.219Z,32.8520
2023-03-20T01:34:18.264Z,32.8520
2023-03-20T01:34:29.320Z,32.8600
2023-03-20T01:34:40.405Z,32.8600
2023-03-20T01:34:51.465Z,32.8490
2023-03-20T01:35:02.492Z,32.8450
2023-03-20T01:35:13.549Z,32.8450
2023-03-20T01:35:24.620Z,32.8520
2023-03-20T01:35:36.037Z,32.8630
2023-03-20T01:35:47.368Z,32.9020
2023-03-20T01:35:58.424Z,32.8850
2023-03-20T01:36:09.492Z,32.8740
2023-03-20T01:36:20.519Z,32.8800
2023-03-20T01:36:31.616Z,32.8850
2023-03-20T01:36:42.651Z,32.8910
2023-03-20T01:36:53.712Z,32.8850
2023-03-20T01:37:04.751Z,32.8910
2023-03-20T01:37:15.842Z,32.8850
2023-03-20T01:37:26.902Z,32.8840
2023-03-20T01:37:37.969Z,32.9220
2023-03-20T01:37:49.033Z,32.9060
2023-03-20T01:38:00.107Z,32.8890
2023-03-20T01:38:11.144Z,32.9000
2023-03-20T01:38:22.184Z,32.8850
2023-03-20T01:38:33.234Z,32.8960
2023-03-20T01:38:44.291Z,32.9130
2023-03-20T01:38:55.350Z,32.8910
2023-03-20T01:39:06.404Z,32.8910
2023-03-20T01:39:17.463Z,32.8910
2023-03-20T01:39:28.507Z,32.8960
2023-03-20T01:39:39.573Z,32.8810
2023-03-20T01:39:50.683Z,32.8870
2023-03-20T01:40:01.694Z,32.8760
2023-03-20T01:40:12.751Z,32.8870
2023-03-20T01:40:23.818Z,32.8700
2023-03-20T01:40:34.880Z,32.8870
2023-03-20T01:40:45.933Z,32.8870
2023-03-20T01:40:57.001Z,32.9050
2023-03-20T01:41:08.058Z,32.8920
2023-03-20T01:41:19.127Z,32.8870
2023-03-20T01:41:30.202Z,32.8850
2023-03-20T01:41:41.263Z,32.9020
2023-03-20T01:41:52.292Z,32.8910
2023-03-20T01:42:03.371Z,32.8910
2023-03-20T01:42:14.423Z,32.8990
2023-03-20T01:42:25.499Z,32.8870
2023-03-20T01:42:36.571Z,32.8870
2023-03-20T01:42:47.631Z,32.9160
2023-03-20T01:42:58.677Z,32.9050
2023-03-20T01:43:09.726Z,32.8870
2023-03-20T01:43:20.789Z,32.8920
2023-03-20T01:43:31.850Z,32.8920
2023-03-20T01:43:42.908Z,32.8870
2023-03-20T01:43:54.017Z,32.8920
2023-03-20T01:44:05.053Z,32.8920
2023-03-20T01:44:16.093Z,32.9050
2023-03-20T01:44:27.155Z,32.8760
2023-03-20T01:44:38.221Z,32.8920
2023-03-20T01:44:49.327Z,32.8990
2023-03-20T01:45:00.389Z,32.9270
2023-03-20T01:45:11.448Z,32.9320
2023-03-20T01:45:22.491Z,32.9320
2023-03-20T01:45:33.693Z,32.9160
2023-03-20T01:45:44.863Z,32.9050
2023-03-20T01:45:55.924Z,32.9130
2023-03-20T01:46:06.993Z,32.9180
2023-03-20T01:46:18.067Z,32.9310
2023-03-20T01:46:29.245Z,32.9360
2023-03-20T01:46:40.293Z,32.9360
2023-03-20T01:46:51.379Z,32.9360
2023-03-20T01:47:02.446Z,32.9360
2023-03-20T01:47:13.501Z,32.9240
2023-03-20T01:47:24.566Z,32.9310
2023-03-20T01:47:35.660Z,32.9310
2023-03-20T01:47:46.709Z,32.9240
2023-03-20T01:47:57.753Z,32.9130
2023-03-20T01:48:08.821Z,32.9070
2023-03-20T01:48:19.860Z,32.9130
2023-03-20T01:48:30.931Z,32.9070
2023-03-20T01:48:42.002Z,32.9240
2023-03-20T01:48:53.043Z,32.9240
2023-03-20T01:49:04.091Z,32.9240
2023-03-20T01:49:15.150Z,32.9130
2023-03-20T01:49:26.171Z,32.9210
2023-03-20T01:49:37.227Z,32.9100
2023-03-20T01:49:48.306Z,32.9100
2023-03-20T01:49:59.328Z,32.9050
2023-03-20T01:50:10.380Z,32.9050
2023-03-20T01:50:21.438Z,32.8990
2023-03-20T01:50:32.514Z,32.8870
2023-03-20T01:50:43.542Z,32.8760
2023-03-20T01:50:54.594Z,32.8760
2023-03-20T01:51:05.661Z,32.8610
2023-03-20T01:51:16.719Z,32.8650
2023-03-20T01:51:27.773Z,32.8700
2023-03-20T01:51:38.836Z,32.8650
2023-03-20T01:51:49.902Z,32.8700
2023-03-20T01:52:00.994Z,32.8920
2023-03-20T01:52:12.074Z,32.8920
2023-03-20T01:52:23.123Z,32.8870
2023-03-20T01:52:34.176Z,32.8990
2023-03-20T01:52:45.223Z,32.9100
2023-03-20T01:52:56.257Z,32.9210
2023-03-20T01:53:07.298Z,32.9320
2023-03-20T01:53:18.368Z,32.9270
2023-03-20T01:53:29.413Z,32.9100
2023-03-20T01:53:40.454Z,32.9210
2023-03-20T01:53:51.524Z,32.9100
2023-03-20T01:54:02.568Z,32.8870
2023-03-20T01:54:13.616Z,32.8920
2023-03-20T01:54:24.667Z,32.8790
2023-03-20T01:54:35.724Z,32.8840
2023-03-20T01:54:46.785Z,32.8810
2023-03-20T01:54:57.843Z,32.8760
2023-03-20T01:55:08.904Z,32.8810
2023-03-20T01:55:19.971Z,32.8760
2023-03-20T01:55:31.032Z,32.8920
2023-03-20T01:55:42.109Z,32.9210
2023-03-20T01:55:53.158Z,32.9160
2023-03-20T01:56:04.211Z,32.8990
2023-03-20T01:56:15.282Z,32.8870
2023-03-20T01:56:26.363Z,32.8810
2023-03-20T01:56:37.398Z,32.8870
2023-03-20T01:56:48.454Z,32.8990
2023-03-20T01:56:59.518Z,32.8990
2023-03-20T01:57:10.575Z,32.8920
2023-03-20T01:57:21.634Z,32.8870
2023-03-20T01:57:32.675Z,32.8870
2023-03-20T01:57:43.733Z,32.8700
2023-03-20T01:57:54.805Z,32.8760
2023-03-20T01:58:05.860Z,32.8910
2023-03-20T01:58:16.928Z,32.8870
2023-03-20T01:58:27.975Z,32.8990
2023-03-20T01:58:39.012Z,32.8810
2023-03-20T01:58:50.076Z,32.8810
2023-03-20T01:59:01.124Z,32.8800
2023-03-20T01:59:12.177Z,32.8710
2023-03-20T01:59:23.248Z,32.9060
2023-03-20T01:59:34.304Z,32.9060
2023-03-20T01:59:45.351Z,32.9220
2023-03-20T01:59:56.419Z,32.9220
2023-03-20T02:00:07.492Z,32.9180
2023-03-20T02:00:18.553Z,32.8910
2023-03-20T02:00:29.607Z,32.8960
2023-03-20T02:00:40.674Z,32.8960
2023-03-20T02:00:51.814Z,32.9180
2023-03-20T02:01:02.907Z,32.9020
2023-03-20T02:01:14.054Z,32.8910
2023-03-20T02:01:25.155Z,32.8910
2023-03-20T02:01:36.275Z,32.8850
2023-03-20T02:01:47.354Z,32.8810
2023-03-20T02:01:58.422Z,32.8700
2023-03-20T02:02:09.464Z,32.8870
2023-03-20T02:02:20.563Z,32.8870
2023-03-20T02:02:31.623Z,32.8870
2023-03-20T02:02:42.700Z,32.8870
2023-03-20T02:02:53.714Z,32.8870
2023-03-20T02:03:04.786Z,32.8810
2023-03-20T02:03:15.812Z,32.8650
2023-03-20T02:03:26.874Z,32.8700
2023-03-20T02:03:37.953Z,32.8540
2023-03-20T02:03:48.989Z,32.8590
2023-03-20T02:04:00.046Z,32.8590
2023-03-20T02:04:11.108Z,32.8650
2023-03-20T02:04:22.279Z,32.8650
2023-03-20T02:04:33.341Z,32.8650
2023-03-20T02:04:44.457Z,32.8760
2023-03-20T02:04:55.582Z,32.8540
2023-03-20T02:05:06.720Z,32.8650
2023-03-20T02:05:17.794Z,32.8650
2023-03-20T02:05:28.834Z,32.8590
2023-03-20T02:05:39.900Z,32.8540
2023-03-20T02:05:50.969Z,32.8590
2023-03-20T02:06:02.021Z,32.8540
2023-03-20T02:06:13.055Z,32.8540
2023-03-20T02:06:24.104Z,32.8430
2023-03-20T02:06:35.203Z,32.8480
2023-03-20T02:06:46.243Z,32.8540
2023-03-20T02:06:57.312Z,32.8450
2023-03-20T02:07:08.373Z,32.8520
2023-03-20T02:07:19.417Z,32.8400
2023-03-20T02:07:30.513Z,32.8520
2023-03-20T02:07:41.573Z,32.8580
2023-03-20T02:07:52.616Z,32.8450
2023-03-20T02:08:03.666Z,32.8580
2023-03-20T02:08:14.722Z,32.8580
2023-03-20T02:08:25.792Z,32.8520
2023-03-20T02:08:36.855Z,32.8400
2023-03-20T02:08:47.924Z,32.8520
2023-03-20T02:08:59.046Z,32.8340
2023-03-20T02:09:10.055Z,32.8370
2023-03-20T02:09:21.124Z,32.8320
2023-03-20T02:09:32.221Z,32.8320
2023-03-20T02:09:43.275Z,32.8230
2023-03-20T02:09:54.332Z,32.8340
2023-03-20T02:10:05.427Z,32.8340
2023-03-20T02:10:16.459Z,32.8340
2023-03-20T02:10:27.527Z,32.8290
2023-03-20T02:10:38.586Z,32.8450
2023-03-20T02:10:49.633Z,32.8520
2023-03-20T02:11:00.694Z,32.8450
2023-03-20T02:11:11.792Z,32.8430
2023-03-20T02:11:22.813Z,32.8400
2023-03-20T02:11:33.866Z,32.8450
2023-03-20T02:11:44.949Z,32.8400
2023-03-20T02:11:56.012Z,32.8630
2023-03-20T02:12:07.074Z,32.8800
2023-03-20T02:12:18.123Z,32.8740
2023-03-20T02:12:29.227Z,32.8800
2023-03-20T02:12:40.316Z,32.8740
2023-03-20T02:12:51.363Z,32.8740
2023-03-20T02:13:02.438Z,32.8740
2023-03-20T02:13:13.504Z,32.8740
2023-03-20T02:13:24.568Z,32.8740
2023-03-20T02:13:35.616Z,32.8740
2023-03-20T02:13:46.648Z,32.8740
2023-03-20T02:13:57.722Z,32.8630